createdAt,value
2022-11-12T00:00:43.365Z,41.40
2022-11-12T00:03:10.213Z,43.17
2022-11-12T00:05:36.912Z,50.23
2022-11-12T00:08:04.128Z,38.00
2022-11-12T00:10:31.715Z,38.17
2022-11-12T00:12:58.598Z,31.77
2022-11-12T00:15:26.159Z,39.23
2022-11-12T00:17:52.802Z,31.27
2022-11-12T00:20:19.409Z,33.33
2022-11-12T00:22:45.961Z,35.50
2022-11-12T00:25:12.588Z,34.97
2022-11-12T00:27:39.240Z,27.40
2022-11-12T00:30:06.450Z,38.30
2022-11-12T00:32:35.999Z,30.20
2022-11-12T00:35:03.094Z,32.83
2022-11-12T00:37:29.657Z,33.90
2022-11-12T00:39:56.201Z,29.30
2022-11-12T00:42:22.774Z,36.93
2022-11-12T00:44:49.893Z,27.27
2022-11-12T00:47:17.398Z,27.50
2022-11-12T00:49:43.991Z,26.73
2022-11-12T00:52:10.571Z,29.07
2022-11-12T00:54:37.146Z,29.33
2022-11-12T00:57:03.730Z,26.87
2022-11-12T00:59:30.257Z,25.70
2022-11-12T01:01:56.859Z,27.33
2022-11-12T01:04:23.418Z,31.43
2022-11-12T01:06:49.988Z,31.87
2022-11-12T01:09:16.576Z,30.30
2022-11-12T01:11:43.163Z,33.43
2022-11-12T01:14:10.839Z,28.90
2022-11-12T01:16:39.772Z,28.33
2022-11-12T01:19:08.595Z,30.00
2022-11-12T01:21:39.653Z,27.47
2022-11-12T01:24:06.604Z,25.33
2022-11-12T01:26:33.450Z,30.33
2022-11-12T01:29:00.077Z,34.37
2022-11-12T01:31:32.890Z,27.30
2022-11-12T01:34:01.948Z,27.57
2022-11-12T01:36:36.487Z,28.00
2022-11-12T01:39:05.354Z,31.47
2022-11-12T01:41:34.230Z,26.87
2022-11-12T01:44:09.183Z,27.47
2022-11-12T01:46:57.094Z,28.27
2022-11-12T01:49:32.092Z,25.60
2022-11-12T01:52:15.376Z,25.27
2022-11-12T01:54:43.487Z,27.03
2022-11-12T01:57:11.843Z,31.70
2022-11-12T01:59:43.797Z,28.23
2022-11-12T02:02:10.817Z,36.27
2022-11-12T02:04:39.888Z,26.67
2022-11-12T02:07:07.878Z,27.10
2022-11-12T02:09:35.473Z,29.03
2022-11-12T02:12:02.577Z,23.37
2022-11-12T02:14:30.020Z,26.37
2022-11-12T02:16:57.385Z,23.97
2022-11-12T02:19:24.177Z,22.80
2022-11-12T02:21:50.928Z,22.53
2022-11-12T02:24:17.443Z,23.93
2022-11-12T02:26:51.241Z,23.27
2022-11-12T02:29:17.820Z,19.97
2022-11-12T02:31:44.406Z,25.40
2022-11-12T02:34:11.011Z,24.37
2022-11-12T02:36:37.564Z,19.87
2022-11-12T02:39:04.614Z,19.90
2022-11-12T02:41:31.183Z,20.40
2022-11-12T02:43:57.705Z,20.50
2022-11-12T02:46:24.524Z,15.67
2022-11-12T02:48:51.065Z,15.20
2022-11-12T02:51:17.717Z,18.03
2022-11-12T02:53:44.242Z,15.70
2022-11-12T02:56:10.794Z,20.70
2022-11-12T02:58:37.322Z,15.17
2022-11-12T03:01:03.987Z,11.43
2022-11-12T03:03:30.636Z,14.80
2022-11-12T03:06:00.369Z,16.03
2022-11-12T03:08:28.041Z,13.10
2022-11-12T03:10:54.921Z,19.73
2022-11-12T03:13:21.484Z,13.33
2022-11-12T03:15:48.194Z,11.77
2022-11-12T03:18:15.058Z,13.67
2022-11-12T03:20:41.622Z,13.40
2022-11-12T03:23:10.653Z,15.47
2022-11-12T03:25:37.452Z,13.17
2022-11-12T03:28:07.166Z,11.53
2022-11-12T03:30:37.188Z,9.63
2022-11-12T03:33:04.366Z,9.80
2022-11-12T03:35:31.952Z,18.63
2022-11-12T03:37:58.677Z,9.43
2022-11-12T03:40:26.005Z,7.13
2022-11-12T03:42:53.816Z,8.33
2022-11-12T03:45:22.692Z,9.77
2022-11-12T03:47:51.620Z,12.57
2022-11-12T03:50:20.420Z,10.53
2022-11-12T03:52:52.810Z,9.07
2022-11-12T03:55:21.106Z,11.33
2022-11-12T03:57:49.369Z,12.57
2022-11-12T04:00:16.394Z,14.27
2022-11-12T04:02:42.950Z,13.60
2022-11-12T04:05:28.620Z,11.60
2022-11-12T04:08:17.952Z,12.10
2022-11-12T04:10:44.696Z,11.17
2022-11-12T04:13:29.685Z,14.47
2022-11-12T04:16:44.716Z,13.07
2022-11-12T04:19:31.857Z,13.23
2022-11-12T04:22:00.551Z,12.37
2022-11-12T04:24:52.722Z,15.53
2022-11-12T04:27:31.157Z,9.10
2022-11-12T04:30:16.338Z,14.03
2022-11-12T04:32:54.691Z,13.03
2022-11-12T04:35:23.233Z,13.37
2022-11-12T04:37:50.424Z,12.23
2022-11-12T04:40:45.678Z,15.40
2022-11-12T04:43:33.592Z,16.37
2022-11-12T04:46:01.608Z,12.73
2022-11-12T04:48:29.123Z,14.20
2022-11-12T04:50:59.666Z,13.00
2022-11-12T04:53:27.330Z,16.33
2022-11-12T04:55:56.980Z,13.53
2022-11-12T04:58:25.058Z,12.83
2022-11-12T05:00:52.051Z,11.93
2022-11-12T05:03:18.744Z,14.17
2022-11-12T05:05:45.800Z,13.10
2022-11-12T05:08:13.357Z,18.00
2022-11-12T05:10:39.897Z,17.40
2022-11-12T05:13:06.445Z,18.37
2022-11-12T05:15:33.125Z,20.17
2022-11-12T05:17:59.708Z,15.00
2022-11-12T05:20:26.535Z,10.57
2022-11-12T05:23:06.639Z,14.57
2022-11-12T05:25:35.554Z,17.03
2022-11-12T05:28:02.092Z,14.97
2022-11-12T05:30:28.624Z,15.37
2022-11-12T05:32:55.203Z,17.33
2022-11-12T05:35:21.845Z,13.90
2022-11-12T05:37:48.390Z,14.73
2022-11-12T05:40:15.211Z,11.67
2022-11-12T05:42:41.757Z,16.87
2022-11-12T05:45:08.824Z,19.97
2022-11-12T05:47:35.365Z,12.90
2022-11-12T05:50:01.913Z,17.37
2022-11-12T05:52:28.449Z,14.07
2022-11-12T05:54:54.991Z,15.00
2022-11-12T05:57:22.676Z,20.07
2022-11-12T05:59:49.192Z,10.63
2022-11-12T06:02:15.785Z,14.23
2022-11-12T06:04:42.328Z,18.50
2022-11-12T06:07:08.948Z,14.97
2022-11-12T06:09:35.512Z,15.40
2022-11-12T06:12:06.090Z,12.07
2022-11-12T06:14:32.629Z,17.67
2022-11-12T06:16:59.173Z,13.10
2022-11-12T06:19:25.828Z,17.53
2022-11-12T06:21:52.656Z,14.33
2022-11-12T06:24:19.386Z,12.67
2022-11-12T06:26:45.912Z,12.43
2022-11-12T06:29:12.625Z,16.30
2022-11-12T06:31:39.198Z,17.23
2022-11-12T06:34:06.985Z,13.03
2022-11-12T06:36:33.739Z,16.53
2022-11-12T06:39:00.291Z,13.23
2022-11-12T06:41:26.834Z,12.03
2022-11-12T06:43:53.378Z,12.73
2022-11-12T06:46:20.165Z,10.73
2022-11-12T06:48:46.684Z,15.20
2022-11-12T06:51:19.258Z,11.67
2022-11-12T06:53:46.627Z,18.47
2022-11-12T06:56:13.809Z,16.60
2022-11-12T06:58:41.101Z,14.30
2022-11-12T07:01:13.949Z,15.10
2022-11-12T07:03:41.980Z,18.17
2022-11-12T07:06:11.699Z,13.17
2022-11-12T07:08:39.088Z,15.10
2022-11-12T07:11:06.657Z,15.20
2022-11-12T07:13:34.737Z,15.80
2022-11-12T07:16:02.467Z,18.87
2022-11-12T07:18:29.846Z,14.63
2022-11-12T07:21:01.182Z,12.70
2022-11-12T07:23:29.562Z,16.63
2022-11-12T07:26:01.904Z,14.60
2022-11-12T07:28:30.081Z,14.03
2022-11-12T07:31:02.397Z,15.33
2022-11-12T07:33:30.054Z,18.60
2022-11-12T07:36:01.520Z,15.23
2022-11-12T07:38:29.999Z,10.67
2022-11-12T07:41:01.448Z,17.10
2022-11-12T07:43:32.451Z,15.67
2022-11-12T07:46:10.515Z,12.30
2022-11-12T07:48:38.968Z,12.73
2022-11-12T07:51:08.297Z,11.63
2022-11-12T07:53:34.851Z,10.87
2022-11-12T07:56:02.135Z,11.13
2022-11-12T07:58:31.187Z,11.97
2022-11-12T08:00:58.463Z,7.20
2022-11-12T08:03:25.793Z,12.20
2022-11-12T08:05:52.357Z,9.67
2022-11-12T08:08:19.076Z,14.83
2022-11-12T08:10:45.606Z,12.93
2022-11-12T08:13:12.196Z,8.30
2022-11-12T08:15:38.751Z,8.83
2022-11-12T08:18:05.313Z,13.53
2022-11-12T08:20:32.076Z,8.77
2022-11-12T08:23:01.792Z,7.63
2022-11-12T08:25:28.359Z,10.17
2022-11-12T08:27:59.662Z,8.03
2022-11-12T08:30:27.475Z,10.13
2022-11-12T08:33:03.399Z,14.40
2022-11-12T08:35:31.146Z,6.37
2022-11-12T08:37:59.608Z,14.53
2022-11-12T08:40:28.119Z,7.10
2022-11-12T08:43:03.329Z,8.30
2022-11-12T08:45:33.191Z,6.77
2022-11-12T08:48:01.251Z,11.53
2022-11-12T08:50:28.536Z,6.87
2022-11-12T08:53:11.840Z,6.10
2022-11-12T08:55:38.916Z,9.90
2022-11-12T08:58:06.273Z,7.97
2022-11-12T09:00:35.959Z,10.00
2022-11-12T09:03:04.921Z,8.83
2022-11-12T09:05:32.038Z,11.23
